sensor_id;sensor_type;location;lat;lon;timestamp;temperature;humidity
73547;SHT30;61807;48.384;-4.386;2023-07-22T00:00:15;17.25;70.23
73547;SHT30;61807;48.384;-4.386;2023-07-22T00:02:43;17.27;70.25
73547;SHT30;61807;48.384;-4.386;2023-07-22T00:05:09;17.24;70.34
73547;SHT30;61807;48.384;-4.386;2023-07-22T00:07:38;17.25;70.47
73547;SHT30;61807;48.384;-4.386;2023-07-22T00:10:06;17.20;70.48
73547;SHT30;61807;48.384;-4.386;2023-07-22T00:12:33;17.24;70.59
73547;SHT30;61807;48.384;-4.386;2023-07-22T00:14:58;17.25;70.60
73547;SHT30;61807;48.384;-4.386;2023-07-22T00:17:24;17.24;70.69
73547;SHT30;61807;48.384;-4.386;2023-07-22T00:19:49;17.22;70.81
73547;SHT30;61807;48.384;-4.386;2023-07-22T00:22:15;17.25;70.82
73547;SHT30;61807;48.384;-4.386;2023-07-22T00:24:41;17.25;70.82
73547;SHT30;61807;48.384;-4.386;2023-07-22T00:27:06;17.25;70.86
73547;SHT30;61807;48.384;-4.386;2023-07-22T00:29:36;17.27;70.89
73547;SHT30;61807;48.384;-4.386;2023-07-22T00:32:02;17.25;70.88
73547;SHT30;61807;48.384;-4.386;2023-07-22T00:34:27;17.27;70.95
73547;SHT30;61807;48.384;-4.386;2023-07-22T00:36:52;17.28;70.94
73547;SHT30;61807;48.384;-4.386;2023-07-22T00:39:18;17.28;70.97
73547;SHT30;61807;48.384;-4.386;2023-07-22T00:41:44;17.31;70.99
73547;SHT30;61807;48.384;-4.386;2023-07-22T00:44:10;17.25;70.99
73547;SHT30;61807;48.384;-4.386;2023-07-22T00:46:37;17.27;70.85
73547;SHT30;61807;48.384;-4.386;2023-07-22T00:49:05;17.27;70.88
73547;SHT30;61807;48.384;-4.386;2023-07-22T00:51:31;17.32;70.84
73547;SHT30;61807;48.384;-4.386;2023-07-22T00:53:56;17.30;70.86
73547;SHT30;61807;48.384;-4.386;2023-07-22T00:56:22;17.28;70.95
73547;SHT30;61807;48.384;-4.386;2023-07-22T00:58:47;17.30;70.94
73547;SHT30;61807;48.384;-4.386;2023-07-22T01:01:13;17.30;70.84
73547;SHT30;61807;48.384;-4.386;2023-07-22T01:03:38;17.30;70.76
73547;SHT30;61807;48.384;-4.386;2023-07-22T01:06:04;17.28;70.62
73547;SHT30;61807;48.384;-4.386;2023-07-22T01:08:29;17.22;70.63
73547;SHT30;61807;48.384;-4.386;2023-07-22T01:10:55;17.22;70.52
73547;SHT30;61807;48.384;-4.386;2023-07-22T01:13:20;17.22;70.46
73547;SHT30;61807;48.384;-4.386;2023-07-22T01:15:46;17.20;70.40
73547;SHT30;61807;48.384;-4.386;2023-07-22T01:18:12;17.20;70.35
73547;SHT30;61807;48.384;-4.386;2023-07-22T01:20:37;17.18;70.15
73547;SHT30;61807;48.384;-4.386;2023-07-22T01:23:03;17.15;70.11
73547;SHT30;61807;48.384;-4.386;2023-07-22T01:25:29;17.10;70.10
73547;SHT30;61807;48.384;-4.386;2023-07-22T01:27:55;17.07;70.11
73547;SHT30;61807;48.384;-4.386;2023-07-22T01:30:20;16.99;70.22
73547;SHT30;61807;48.384;-4.386;2023-07-22T01:32:49;16.91;70.26
73547;SHT30;61807;48.384;-4.386;2023-07-22T01:35:15;16.85;70.38
73547;SHT30;61807;48.384;-4.386;2023-07-22T01:37:41;16.76;70.52
73547;SHT30;61807;48.384;-4.386;2023-07-22T01:40:06;16.72;70.65
73547;SHT30;61807;48.384;-4.386;2023-07-22T01:42:39;16.60;70.75
73547;SHT30;61807;48.384;-4.386;2023-07-22T01:45:05;16.55;70.82
73547;SHT30;61807;48.384;-4.386;2023-07-22T01:47:33;16.52;70.91
73547;SHT30;61807;48.384;-4.386;2023-07-22T01:49:59;16.43;71.05
73547;SHT30;61807;48.384;-4.386;2023-07-22T01:52:25;16.42;71.14
73547;SHT30;61807;48.384;-4.386;2023-07-22T01:54:50;16.38;71.27
73547;SHT30;61807;48.384;-4.386;2023-07-22T01:57:15;16.33;71.38
73547;SHT30;61807;48.384;-4.386;2023-07-22T01:59:41;16.30;71.45
73547;SHT30;61807;48.384;-4.386;2023-07-22T02:02:06;16.30;71.52
73547;SHT30;61807;48.384;-4.386;2023-07-22T02:04:31;16.26;71.60
73547;SHT30;61807;48.384;-4.386;2023-07-22T02:06:57;16.26;71.69
73547;SHT30;61807;48.384;-4.386;2023-07-22T02:09:22;16.26;71.65
73547;SHT30;61807;48.384;-4.386;2023-07-22T02:11:47;16.25;71.76
73547;SHT30;61807;48.384;-4.386;2023-07-22T02:14:13;16.21;71.85
73547;SHT30;61807;48.384;-4.386;2023-07-22T02:16:38;16.25;71.89
73547;SHT30;61807;48.384;-4.386;2023-07-22T02:19:05;16.25;72.01
73547;SHT30;61807;48.384;-4.386;2023-07-22T02:21:31;16.25;72.14
73547;SHT30;61807;48.384;-4.386;2023-07-22T02:23:56;16.25;72.14
73547;SHT30;61807;48.384;-4.386;2023-07-22T02:26:21;16.29;72.19
73547;SHT30;61807;48.384;-4.386;2023-07-22T02:28:47;16.29;72.21
73547;SHT30;61807;48.384;-4.386;2023-07-22T02:31:13;16.28;72.35
73547;SHT30;61807;48.384;-4.386;2023-07-22T02:33:39;16.33;72.28
73547;SHT30;61807;48.384;-4.386;2023-07-22T02:36:04;16.35;72.32
73547;SHT30;61807;48.384;-4.386;2023-07-22T02:38:30;16.36;72.37
73547;SHT30;61807;48.384;-4.386;2023-07-22T02:41:01;16.35;72.47
73547;SHT30;61807;48.384;-4.386;2023-07-22T02:43:27;16.36;72.44
73547;SHT30;61807;48.384;-4.386;2023-07-22T02:45:53;16.39;72.49
73547;SHT30;61807;48.384;-4.386;2023-07-22T02:48:18;16.41;72.70
73547;SHT30;61807;48.384;-4.386;2023-07-22T02:50:44;16.39;72.73
73547;SHT30;61807;48.384;-4.386;2023-07-22T02:53:09;16.41;72.88
73547;SHT30;61807;48.384;-4.386;2023-07-22T02:55:34;16.39;72.90
73547;SHT30;61807;48.384;-4.386;2023-07-22T02:58:00;16.43;73.00
73547;SHT30;61807;48.384;-4.386;2023-07-22T03:00:25;16.38;73.27
73547;SHT30;61807;48.384;-4.386;2023-07-22T03:02:52;16.35;73.33
73547;SHT30;61807;48.384;-4.386;2023-07-22T03:05:18;16.33;73.30
73547;SHT30;61807;48.384;-4.386;2023-07-22T03:07:44;16.33;73.46
73547;SHT30;61807;48.384;-4.386;2023-07-22T03:10:09;16.35;73.56
73547;SHT30;61807;48.384;-4.386;2023-07-22T03:12:35;16.30;73.72
73547;SHT30;61807;48.384;-4.386;2023-07-22T03:15:01;16.28;73.75
73547;SHT30;61807;48.384;-4.386;2023-07-22T03:17:27;16.28;73.83
73547;SHT30;61807;48.384;-4.386;2023-07-22T03:19:53;16.29;73.94
73547;SHT30;61807;48.384;-4.386;2023-07-22T03:22:18;16.26;73.96
73547;SHT30;61807;48.384;-4.386;2023-07-22T03:24:46;16.29;73.98
73547;SHT30;61807;48.384;-4.386;2023-07-22T03:27:13;16.29;74.09
73547;SHT30;61807;48.384;-4.386;2023-07-22T03:29:40;16.29;74.14
73547;SHT30;61807;48.384;-4.386;2023-07-22T03:32:06;16.29;74.13
73547;SHT30;61807;48.384;-4.386;2023-07-22T03:34:32;16.30;74.24
73547;SHT30;61807;48.384;-4.386;2023-07-22T03:36:57;16.30;74.22
73547;SHT30;61807;48.384;-4.386;2023-07-22T03:39:23;16.33;74.25
73547;SHT30;61807;48.384;-4.386;2023-07-22T03:41:49;16.33;74.38
73547;SHT30;61807;48.384;-4.386;2023-07-22T03:44:14;16.33;74.33
73547;SHT30;61807;48.384;-4.386;2023-07-22T03:46:40;16.35;74.26
73547;SHT30;61807;48.384;-4.386;2023-07-22T03:49:05;16.38;74.35
73547;SHT30;61807;48.384;-4.386;2023-07-22T03:51:32;16.38;74.39
73547;SHT30;61807;48.384;-4.386;2023-07-22T03:53:58;16.39;74.37
73547;SHT30;61807;48.384;-4.386;2023-07-22T03:56:23;16.41;74.43
73547;SHT30;61807;48.384;-4.386;2023-07-22T03:58:52;16.43;74.39
73547;SHT30;61807;48.384;-4.386;2023-07-22T04:01:18;16.43;74.49
73547;SHT30;61807;48.384;-4.386;2023-07-22T04:03:44;16.43;74.50
73547;SHT30;61807;48.384;-4.386;2023-07-22T04:06:09;16.46;74.56
73547;SHT30;61807;48.384;-4.386;2023-07-22T04:08:35;16.46;74.55
73547;SHT30;61807;48.384;-4.386;2023-07-22T04:11:00;16.49;74.62
73547;SHT30;61807;48.384;-4.386;2023-07-22T04:13:26;16.49;74.69
73547;SHT30;61807;48.384;-4.386;2023-07-22T04:15:52;16.52;74.72
73547;SHT30;61807;48.384;-4.386;2023-07-22T04:18:20;16.56;74.98
73547;SHT30;61807;48.384;-4.386;2023-07-22T04:20:46;16.55;74.83
73547;SHT30;61807;48.384;-4.386;2023-07-22T04:23:13;16.59;74.92
73547;SHT30;61807;48.384;-4.386;2023-07-22T04:25:43;16.60;74.85
73547;SHT30;61807;48.384;-4.386;2023-07-22T04:28:09;16.63;74.86
73547;SHT30;61807;48.384;-4.386;2023-07-22T04:30:38;16.66;74.91
73547;SHT30;61807;48.384;-4.386;2023-07-22T04:33:05;16.72;74.78
73547;SHT30;61807;48.384;-4.386;2023-07-22T04:35:36;16.76;74.74
73547;SHT30;61807;48.384;-4.386;2023-07-22T04:38:02;16.80;74.60
73547;SHT30;61807;48.384;-4.386;2023-07-22T04:40:28;16.87;74.56
73547;SHT30;61807;48.384;-4.386;2023-07-22T04:42:55;16.88;74.51
73547;SHT30;61807;48.384;-4.386;2023-07-22T04:45:22;16.94;74.48
73547;SHT30;61807;48.384;-4.386;2023-07-22T04:47:49;16.97;74.45
73547;SHT30;61807;48.384;-4.386;2023-07-22T04:50:16;17.00;74.48
73547;SHT30;61807;48.384;-4.386;2023-07-22T04:52:45;17.03;74.39
73547;SHT30;61807;48.384;-4.386;2023-07-22T04:55:11;17.07;74.36
73547;SHT30;61807;48.384;-4.386;2023-07-22T04:57:41;17.10;74.30
73547;SHT30;61807;48.384;-4.386;2023-07-22T05:00:08;17.11;74.18
73547;SHT30;61807;48.384;-4.386;2023-07-22T05:02:44;17.14;74.16
73547;SHT30;61807;48.384;-4.386;2023-07-22T05:05:10;17.18;74.15
73547;SHT30;61807;48.384;-4.386;2023-07-22T05:07:35;17.20;74.14
73547;SHT30;61807;48.384;-4.386;2023-07-22T05:10:01;17.21;74.08
73547;SHT30;61807;48.384;-4.386;2023-07-22T05:12:26;17.22;74.06
73547;SHT30;61807;48.384;-4.386;2023-07-22T05:14:52;17.25;74.01
73547;SHT30;61807;48.384;-4.386;2023-07-22T05:17:17;17.27;73.90
73547;SHT30;61807;48.384;-4.386;2023-07-22T05:19:43;17.30;73.83
73547;SHT30;61807;48.384;-4.386;2023-07-22T05:22:08;17.31;73.76
73547;SHT30;61807;48.384;-4.386;2023-07-22T05:24:34;17.35;73.76
73547;SHT30;61807;48.384;-4.386;2023-07-22T05:26:59;17.34;73.69
73547;SHT30;61807;48.384;-4.386;2023-07-22T05:29:24;17.39;73.63
73547;SHT30;61807;48.384;-4.386;2023-07-22T05:31:50;17.39;73.57
73547;SHT30;61807;48.384;-4.386;2023-07-22T05:34:15;17.39;73.55
73547;SHT30;61807;48.384;-4.386;2023-07-22T05:36:41;17.45;73.47
73547;SHT30;61807;48.384;-4.386;2023-07-22T05:39:06;17.46;73.41
73547;SHT30;61807;48.384;-4.386;2023-07-22T05:41:33;17.45;73.47
73547;SHT30;61807;48.384;-4.386;2023-07-22T05:43:58;17.46;73.47
73547;SHT30;61807;48.384;-4.386;2023-07-22T05:46:23;17.49;73.47
73547;SHT30;61807;48.384;-4.386;2023-07-22T05:48:49;17.51;73.51
73547;SHT30;61807;48.384;-4.386;2023-07-22T05:51:15;17.53;73.51
73547;SHT30;61807;48.384;-4.386;2023-07-22T05:53:40;17.56;73.58
73547;SHT30;61807;48.384;-4.386;2023-07-22T05:56:06;17.52;73.46
73547;SHT30;61807;48.384;-4.386;2023-07-22T05:58:31;17.58;73.34
73547;SHT30;61807;48.384;-4.386;2023-07-22T06:00:56;17.61;73.33
73547;SHT30;61807;48.384;-4.386;2023-07-22T06:03:22;17.62;73.29
73547;SHT30;61807;48.384;-4.386;2023-07-22T06:05:47;17.65;73.29
73547;SHT30;61807;48.384;-4.386;2023-07-22T06:08:13;17.66;73.25
73547;SHT30;61807;48.384;-4.386;2023-07-22T06:10:42;17.68;73.34
73547;SHT30;61807;48.384;-4.386;2023-07-22T06:13:08;17.73;73.37
73547;SHT30;61807;48.384;-4.386;2023-07-22T06:15:33;17.76;73.28
73547;SHT30;61807;48.384;-4.386;2023-07-22T06:17:59;17.79;73.16
73547;SHT30;61807;48.384;-4.386;2023-07-22T06:20:25;17.79;73.25
73547;SHT30;61807;48.384;-4.386;2023-07-22T06:22:51;17.82;73.11
73547;SHT30;61807;48.384;-4.386;2023-07-22T06:25:16;17.87;73.07
73547;SHT30;61807;48.384;-4.386;2023-07-22T06:27:42;17.90;72.96
73547;SHT30;61807;48.384;-4.386;2023-07-22T06:30:07;17.96;72.94
73547;SHT30;61807;48.384;-4.386;2023-07-22T06:32:34;17.97;73.05
73547;SHT30;61807;48.384;-4.386;2023-07-22T06:34:59;18.06;73.06
73547;SHT30;61807;48.384;-4.386;2023-07-22T06:37:25;18.07;72.86
73547;SHT30;61807;48.384;-4.386;2023-07-22T06:39:51;18.11;72.84
73547;SHT30;61807;48.384;-4.386;2023-07-22T06:42:16;18.16;72.87
73547;SHT30;61807;48.384;-4.386;2023-07-22T06:44:43;18.20;72.71
73547;SHT30;61807;48.384;-4.386;2023-07-22T06:47:08;18.21;72.53
73547;SHT30;61807;48.384;-4.386;2023-07-22T06:49:34;18.28;72.44
73547;SHT30;61807;48.384;-4.386;2023-07-22T06:51:59;18.23;72.33
73547;SHT30;61807;48.384;-4.386;2023-07-22T06:54:24;18.28;72.29
73547;SHT30;61807;48.384;-4.386;2023-07-22T06:56:50;18.27;72.13
73547;SHT30;61807;48.384;-4.386;2023-07-22T06:59:15;18.27;71.98
73547;SHT30;61807;48.384;-4.386;2023-07-22T07:01:40;18.31;72.05
73547;SHT30;61807;48.384;-4.386;2023-07-22T07:04:06;18.36;72.09
73547;SHT30;61807;48.384;-4.386;2023-07-22T07:06:31;18.45;71.98
73547;SHT30;61807;48.384;-4.386;2023-07-22T07:08:59;18.50;71.82
73547;SHT30;61807;48.384;-4.386;2023-07-22T07:11:25;18.51;71.76
73547;SHT30;61807;48.384;-4.386;2023-07-22T07:13:51;18.55;71.61
73547;SHT30;61807;48.384;-4.386;2023-07-22T07:16:25;18.62;71.50
73547;SHT30;61807;48.384;-4.386;2023-07-22T07:18:52;18.75;71.25
73547;SHT30;61807;48.384;-4.386;2023-07-22T07:21:21;18.82;70.85
73547;SHT30;61807;48.384;-4.386;2023-07-22T07:23:48;18.95;70.74
73547;SHT30;61807;48.384;-4.386;2023-07-22T07:26:13;19.09;70.41
73547;SHT30;61807;48.384;-4.386;2023-07-22T07:28:39;19.24;70.27
73547;SHT30;61807;48.384;-4.386;2023-07-22T07:31:04;19.37;70.02
73547;SHT30;61807;48.384;-4.386;2023-07-22T07:33:30;19.49;69.86
73547;SHT30;61807;48.384;-4.386;2023-07-22T07:35:56;19.63;69.51
73547;SHT30;61807;48.384;-4.386;2023-07-22T07:38:21;19.75;68.91
73547;SHT30;61807;48.384;-4.386;2023-07-22T07:41:03;19.79;68.75
73547;SHT30;61807;48.384;-4.386;2023-07-22T07:43:29;19.87;68.64
73547;SHT30;61807;48.384;-4.386;2023-07-22T07:48:38;19.88;68.53
73547;SHT30;61807;48.384;-4.386;2023-07-22T07:51:04;19.88;68.39
73547;SHT30;61807;48.384;-4.386;2023-07-22T07:53:29;19.84;68.13
73547;SHT30;61807;48.384;-4.386;2023-07-22T07:55:55;19.78;68.35
73547;SHT30;61807;48.384;-4.386;2023-07-22T07:58:20;19.73;68.43
73547;SHT30;61807;48.384;-4.386;2023-07-22T08:00:45;19.67;68.43
73547;SHT30;61807;48.384;-4.386;2023-07-22T08:03:11;19.60;68.51
73547;SHT30;61807;48.384;-4.386;2023-07-22T08:05:36;19.57;68.54
73547;SHT30;61807;48.384;-4.386;2023-07-22T08:08:02;19.51;68.48
73547;SHT30;61807;48.384;-4.386;2023-07-22T08:10:27;19.51;68.57
73547;SHT30;61807;48.384;-4.386;2023-07-22T08:12:52;19.56;68.40
73547;SHT30;61807;48.384;-4.386;2023-07-22T08:15:18;19.53;68.24
73547;SHT30;61807;48.384;-4.386;2023-07-22T08:17:43;19.47;68.19
73547;SHT30;61807;48.384;-4.386;2023-07-22T08:20:09;19.47;68.26
73547;SHT30;61807;48.384;-4.386;2023-07-22T08:22:35;19.50;68.46
73547;SHT30;61807;48.384;-4.386;2023-07-22T08:25:00;19.53;68.20
73547;SHT30;61807;48.384;-4.386;2023-07-22T08:27:26;19.54;68.11
73547;SHT30;61807;48.384;-4.386;2023-07-22T08:29:51;19.61;67.93
73547;SHT30;61807;48.384;-4.386;2023-07-22T08:32:16;19.75;67.77
73547;SHT30;61807;48.384;-4.386;2023-07-22T08:34:42;19.91;67.73
73547;SHT30;61807;48.384;-4.386;2023-07-22T08:37:07;20.14;67.15
73547;SHT30;61807;48.384;-4.386;2023-07-22T08:39:33;20.39;66.67
73547;SHT30;61807;48.384;-4.386;2023-07-22T08:42:02;20.62;65.58
73547;SHT30;61807;48.384;-4.386;2023-07-22T08:44:32;20.77;64.97
73547;SHT30;61807;48.384;-4.386;2023-07-22T08:47:00;20.93;64.51
73547;SHT30;61807;48.384;-4.386;2023-07-22T08:49:29;21.12;64.01
73547;SHT30;61807;48.384;-4.386;2023-07-22T08:51:56;21.31;63.98
73547;SHT30;61807;48.384;-4.386;2023-07-22T08:54:23;21.41;63.54
73547;SHT30;61807;48.384;-4.386;2023-07-22T08:56:49;21.59;63.22
73547;SHT30;61807;48.384;-4.386;2023-07-22T08:59:17;21.79;62.87
73547;SHT30;61807;48.384;-4.386;2023-07-22T09:01:43;21.93;62.97
73547;SHT30;61807;48.384;-4.386;2023-07-22T09:04:09;21.89;62.60
73547;SHT30;61807;48.384;-4.386;2023-07-22T09:06:35;21.90;62.75
73547;SHT30;61807;48.384;-4.386;2023-07-22T09:09:01;21.83;62.45
73547;SHT30;61807;48.384;-4.386;2023-07-22T09:11:30;21.72;62.92
73547;SHT30;61807;48.384;-4.386;2023-07-22T09:13:56;21.55;62.87
73547;SHT30;61807;48.384;-4.386;2023-07-22T09:16:24;21.32;63.24
73547;SHT30;61807;48.384;-4.386;2023-07-22T09:18:54;21.12;63.76
73547;SHT30;61807;48.384;-4.386;2023-07-22T09:21:21;21.11;63.88
73547;SHT30;61807;48.384;-4.386;2023-07-22T09:23:46;21.31;63.69
73547;SHT30;61807;48.384;-4.386;2023-07-22T09:26:13;21.51;63.08
73547;SHT30;61807;48.384;-4.386;2023-07-22T09:28:52;21.75;62.48
73547;SHT30;61807;48.384;-4.386;2023-07-22T09:31:18;21.89;62.07
73547;SHT30;61807;48.384;-4.386;2023-07-22T09:33:43;22.01;61.74
73547;SHT30;61807;48.384;-4.386;2023-07-22T09:36:12;22.03;61.50
73547;SHT30;61807;48.384;-4.386;2023-07-22T09:38:38;22.17;60.93
73547;SHT30;61807;48.384;-4.386;2023-07-22T09:41:03;22.40;60.82
73547;SHT30;61807;48.384;-4.386;2023-07-22T09:43:30;22.41;60.38
73547;SHT30;61807;48.384;-4.386;2023-07-22T09:45:55;22.38;59.86
73547;SHT30;61807;48.384;-4.386;2023-07-22T09:48:21;22.55;60.00
73547;SHT30;61807;48.384;-4.386;2023-07-22T09:50:56;22.72;59.73
73547;SHT30;61807;48.384;-4.386;2023-07-22T09:53:21;22.82;59.45
73547;SHT30;61807;48.384;-4.386;2023-07-22T09:55:47;22.85;59.66
73547;SHT30;61807;48.384;-4.386;2023-07-22T09:58:13;22.88;59.15
73547;SHT30;61807;48.384;-4.386;2023-07-22T10:00:42;22.87;59.04
73547;SHT30;61807;48.384;-4.386;2023-07-22T10:03:12;22.84;59.21
73547;SHT30;61807;48.384;-4.386;2023-07-22T10:05:40;22.88;59.41
73547;SHT30;61807;48.384;-4.386;2023-07-22T10:08:08;23.03;59.13
73547;SHT30;61807;48.384;-4.386;2023-07-22T10:10:38;23.20;58.32
73547;SHT30;61807;48.384;-4.386;2023-07-22T10:13:04;23.26;58.54
73547;SHT30;61807;48.384;-4.386;2023-07-22T10:15:32;23.30;58.23
73547;SHT30;61807;48.384;-4.386;2023-07-22T10:18:02;23.22;57.85
73547;SHT30;61807;48.384;-4.386;2023-07-22T10:20:28;23.12;57.89
73547;SHT30;61807;48.384;-4.386;2023-07-22T10:22:54;23.02;57.98
73547;SHT30;61807;48.384;-4.386;2023-07-22T10:25:23;22.89;58.13
73547;SHT30;61807;48.384;-4.386;2023-07-22T10:27:50;22.81;58.57
73547;SHT30;61807;48.384;-4.386;2023-07-22T10:30:17;22.81;58.84
73547;SHT30;61807;48.384;-4.386;2023-07-22T10:32:48;22.79;58.81
73547;SHT30;61807;48.384;-4.386;2023-07-22T10:35:22;22.72;58.85
73547;SHT30;61807;48.384;-4.386;2023-07-22T10:37:52;22.72;59.06
73547;SHT30;61807;48.384;-4.386;2023-07-22T10:43:05;22.64;59.01
73547;SHT30;61807;48.384;-4.386;2023-07-22T10:45:33;22.54;59.25
73547;SHT30;61807;48.384;-4.386;2023-07-22T10:48:12;22.47;59.46
73547;SHT30;61807;48.384;-4.386;2023-07-22T10:50:46;22.43;59.63
73547;SHT30;61807;48.384;-4.386;2023-07-22T10:53:32;22.36;59.87
73547;SHT30;61807;48.384;-4.386;2023-07-22T10:56:10;22.27;59.92
73547;SHT30;61807;48.384;-4.386;2023-07-22T11:04:24;21.97;60.69
73547;SHT30;61807;48.384;-4.386;2023-07-22T11:06:57;21.75;60.88
73547;SHT30;61807;48.384;-4.386;2023-07-22T11:12:14;21.48;61.64
73547;SHT30;61807;48.384;-4.386;2023-07-22T11:17:13;21.34;62.66
73547;SHT30;61807;48.384;-4.386;2023-07-22T11:19:39;21.32;62.80
73547;SHT30;61807;48.384;-4.386;2023-07-22T11:22:05;21.43;63.06
73547;SHT30;61807;48.384;-4.386;2023-07-22T11:24:33;21.55;62.72
73547;SHT30;61807;48.384;-4.386;2023-07-22T11:26:59;21.73;63.07
73547;SHT30;61807;48.384;-4.386;2023-07-22T11:29:24;21.85;62.64
73547;SHT30;61807;48.384;-4.386;2023-07-22T11:31:50;21.94;62.36
73547;SHT30;61807;48.384;-4.386;2023-07-22T11:34:18;22.04;62.24
73547;SHT30;61807;48.384;-4.386;2023-07-22T11:36:45;22.10;61.76
73547;SHT30;61807;48.384;-4.386;2023-07-22T11:39:19;22.18;61.82
73547;SHT30;61807;48.384;-4.386;2023-07-22T11:41:47;22.27;61.77
73547;SHT30;61807;48.384;-4.386;2023-07-22T11:44:15;22.43;61.60
73547;SHT30;61807;48.384;-4.386;2023-07-22T11:49:32;22.65;60.67
73547;SHT30;61807;48.384;-4.386;2023-07-22T11:52:06;22.85;60.32
73547;SHT30;61807;48.384;-4.386;2023-07-22T11:54:37;23.15;59.89
73547;SHT30;61807;48.384;-4.386;2023-07-22T12:04:40;23.73;57.44
73547;SHT30;61807;48.384;-4.386;2023-07-22T12:07:05;23.94;56.99
73547;SHT30;61807;48.384;-4.386;2023-07-22T12:09:31;24.11;56.91
73547;SHT30;61807;48.384;-4.386;2023-07-22T12:11:58;24.29;56.27
73547;SHT30;61807;48.384;-4.386;2023-07-22T12:14:32;24.42;56.67
73547;SHT30;61807;48.384;-4.386;2023-07-22T12:16:57;24.48;55.87
73547;SHT30;61807;48.384;-4.386;2023-07-22T12:19:23;24.40;55.98
73547;SHT30;61807;48.384;-4.386;2023-07-22T12:21:48;24.29;56.43
73547;SHT30;61807;48.384;-4.386;2023-07-22T12:24:14;24.11;56.41
73547;SHT30;61807;48.384;-4.386;2023-07-22T12:26:40;23.91;56.75
73547;SHT30;61807;48.384;-4.386;2023-07-22T12:29:05;23.71;56.94
73547;SHT30;61807;48.384;-4.386;2023-07-22T12:31:30;23.46;57.07
73547;SHT30;61807;48.384;-4.386;2023-07-22T12:33:56;23.20;56.93
73547;SHT30;61807;48.384;-4.386;2023-07-22T12:36:21;22.94;57.82
73547;SHT30;61807;48.384;-4.386;2023-07-22T12:38:46;22.73;58.27
73547;SHT30;61807;48.384;-4.386;2023-07-22T12:41:12;22.57;58.67
73547;SHT30;61807;48.384;-4.386;2023-07-22T12:43:37;22.44;58.66
73547;SHT30;61807;48.384;-4.386;2023-07-22T12:46:02;22.33;59.00
73547;SHT30;61807;48.384;-4.386;2023-07-22T12:48:28;22.24;59.29
73547;SHT30;61807;48.384;-4.386;2023-07-22T12:50:54;22.17;59.20
73547;SHT30;61807;48.384;-4.386;2023-07-22T12:53:19;22.10;59.70
73547;SHT30;61807;48.384;-4.386;2023-07-22T12:55:45;22.01;59.87
73547;SHT30;61807;48.384;-4.386;2023-07-22T12:58:10;21.93;60.06
73547;SHT30;61807;48.384;-4.386;2023-07-22T13:00:36;21.78;60.13
73547;SHT30;61807;48.384;-4.386;2023-07-22T13:03:01;21.61;60.18
73547;SHT30;61807;48.384;-4.386;2023-07-22T13:05:27;21.46;60.32
73547;SHT30;61807;48.384;-4.386;2023-07-22T13:07:52;21.35;60.91
73547;SHT30;61807;48.384;-4.386;2023-07-22T13:10:18;21.25;60.72
73547;SHT30;61807;48.384;-4.386;2023-07-22T13:12:45;21.21;61.04
73547;SHT30;61807;48.384;-4.386;2023-07-22T13:15:11;21.14;61.08
73547;SHT30;61807;48.384;-4.386;2023-07-22T13:17:36;21.05;61.11
73547;SHT30;61807;48.384;-4.386;2023-07-22T13:20:03;20.98;61.27
73547;SHT30;61807;48.384;-4.386;2023-07-22T13:22:37;20.85;61.48
73547;SHT30;61807;48.384;-4.386;2023-07-22T13:25:03;20.79;61.78
73547;SHT30;61807;48.384;-4.386;2023-07-22T13:27:28;20.74;62.11
73547;SHT30;61807;48.384;-4.386;2023-07-22T13:29:53;20.64;62.04
73547;SHT30;61807;48.384;-4.386;2023-07-22T13:32:19;20.60;62.34
73547;SHT30;61807;48.384;-4.386;2023-07-22T13:34:44;20.52;62.19
73547;SHT30;61807;48.384;-4.386;2023-07-22T13:37:10;20.42;62.37
73547;SHT30;61807;48.384;-4.386;2023-07-22T13:39:35;20.33;62.63
73547;SHT30;61807;48.384;-4.386;2023-07-22T13:42:00;20.26;62.70
73547;SHT30;61807;48.384;-4.386;2023-07-22T13:44:26;20.16;63.15
73547;SHT30;61807;48.384;-4.386;2023-07-22T13:46:51;20.14;63.18
73547;SHT30;61807;48.384;-4.386;2023-07-22T13:49:16;20.08;63.35
73547;SHT30;61807;48.384;-4.386;2023-07-22T13:51:43;20.06;63.26
73547;SHT30;61807;48.384;-4.386;2023-07-22T13:54:08;19.99;63.32
73547;SHT30;61807;48.384;-4.386;2023-07-22T13:56:33;19.99;63.60
73547;SHT30;61807;48.384;-4.386;2023-07-22T13:59:00;19.94;63.59
73547;SHT30;61807;48.384;-4.386;2023-07-22T14:01:26;19.87;63.68
73547;SHT30;61807;48.384;-4.386;2023-07-22T14:03:51;19.78;63.75
73547;SHT30;61807;48.384;-4.386;2023-07-22T14:06:17;19.75;64.00
73547;SHT30;61807;48.384;-4.386;2023-07-22T14:08:42;19.70;64.23
73547;SHT30;61807;48.384;-4.386;2023-07-22T14:11:08;19.67;64.54
73547;SHT30;61807;48.384;-4.386;2023-07-22T14:13:33;19.71;64.65
73547;SHT30;61807;48.384;-4.386;2023-07-22T14:15:59;19.75;64.93
73547;SHT30;61807;48.384;-4.386;2023-07-22T14:18:24;19.81;64.90
73547;SHT30;61807;48.384;-4.386;2023-07-22T14:20:50;19.87;65.12
73547;SHT30;61807;48.384;-4.386;2023-07-22T14:23:15;19.87;65.43
73547;SHT30;61807;48.384;-4.386;2023-07-22T14:25:40;19.95;65.36
73547;SHT30;61807;48.384;-4.386;2023-07-22T14:28:06;20.01;65.33
73547;SHT30;61807;48.384;-4.386;2023-07-22T14:30:31;19.99;65.38
73547;SHT30;61807;48.384;-4.386;2023-07-22T14:32:57;20.05;65.42
73547;SHT30;61807;48.384;-4.386;2023-07-22T14:35:22;20.05;65.63
73547;SHT30;61807;48.384;-4.386;2023-07-22T14:37:48;20.05;65.68
73547;SHT30;61807;48.384;-4.386;2023-07-22T14:40:13;20.08;65.43
73547;SHT30;61807;48.384;-4.386;2023-07-22T14:42:39;20.08;65.44
73547;SHT30;61807;48.384;-4.386;2023-07-22T14:45:06;19.99;65.48
73547;SHT30;61807;48.384;-4.386;2023-07-22T14:47:32;19.92;65.63
73547;SHT30;61807;48.384;-4.386;2023-07-22T14:49:57;19.81;65.82
73547;SHT30;61807;48.384;-4.386;2023-07-22T14:52:22;19.71;65.95
73547;SHT30;61807;48.384;-4.386;2023-07-22T14:54:48;19.61;66.02
73547;SHT30;61807;48.384;-4.386;2023-07-22T14:57:14;19.58;66.14
73547;SHT30;61807;48.384;-4.386;2023-07-22T14:59:40;19.49;66.20
73547;SHT30;61807;48.384;-4.386;2023-07-22T15:02:06;19.38;66.40
73547;SHT30;61807;48.384;-4.386;2023-07-22T15:04:31;19.37;66.50
73547;SHT30;61807;48.384;-4.386;2023-07-22T15:06:57;19.33;66.73
73547;SHT30;61807;48.384;-4.386;2023-07-22T15:09:22;19.27;66.80
73547;SHT30;61807;48.384;-4.386;2023-07-22T15:11:47;19.23;66.90
73547;SHT30;61807;48.384;-4.386;2023-07-22T15:14:13;19.19;67.16
73547;SHT30;61807;48.384;-4.386;2023-07-22T15:16:38;19.17;67.33
73547;SHT30;61807;48.384;-4.386;2023-07-22T15:19:05;19.15;67.45
73547;SHT30;61807;48.384;-4.386;2023-07-22T15:21:30;19.13;67.64
73547;SHT30;61807;48.384;-4.386;2023-07-22T15:23:56;19.12;67.86
73547;SHT30;61807;48.384;-4.386;2023-07-22T15:26:21;19.08;67.94
73547;SHT30;61807;48.384;-4.386;2023-07-22T15:28:47;19.05;68.06
73547;SHT30;61807;48.384;-4.386;2023-07-22T15:31:17;19.03;68.24
73547;SHT30;61807;48.384;-4.386;2023-07-22T15:33:42;19.00;68.34
73547;SHT30;61807;48.384;-4.386;2023-07-22T15:36:07;18.96;68.57